sensor_id;sensor_type;location;lat;lon;timestamp;pressure;altitude;pressure_sealevel;temperature;humidity
67015;BME280;1033;52.560;13.374;2023-06-14T00:01:22;101244.81;;;13.81;71.23
67015;BME280;1033;52.560;13.374;2023-06-14T00:03:52;101236.06;;;13.72;72.00
67015;BME280;1033;52.560;13.374;2023-06-14T00:06:23;101232.94;;;13.69;72.60
67015;BME280;1033;52.560;13.374;2023-06-14T00:08:53;101240.06;;;13.70;72.49
67015;BME280;1033;52.560;13.374;2023-06-14T00:11:22;101246.75;;;13.61;73.31
67015;BME280;1033;52.560;13.374;2023-06-14T00:13:51;101248.22;;;13.70;73.24
67015;BME280;1033;52.560;13.374;2023-06-14T00:16:20;101248.81;;;13.72;73.36
67015;BME280;1033;52.560;13.374;2023-06-14T00:18:52;101253.28;;;13.60;73.69
67015;BME280;1033;52.560;13.374;2023-06-14T00:21:21;101243.00;;;13.62;73.87
67015;BME280;1033;52.560;13.374;2023-06-14T00:24:16;101248.19;;;13.76;72.95
67015;BME280;1033;52.560;13.374;2023-06-14T00:26:46;101242.94;;;13.75;73.21
67015;BME280;1033;52.560;13.374;2023-06-14T00:29:16;101244.47;;;13.64;73.91
67015;BME280;1033;52.560;13.374;2023-06-14T00:31:45;101246.16;;;13.59;74.16
67015;BME280;1033;52.560;13.374;2023-06-14T00:34:16;101252.84;;;13.63;74.03
67015;BME280;1033;52.560;13.374;2023-06-14T00:36:45;101251.78;;;13.57;74.51
67015;BME280;1033;52.560;13.374;2023-06-14T00:39:14;101249.47;;;13.61;74.77
67015;BME280;1033;52.560;13.374;2023-06-14T00:41:43;101247.59;;;13.68;74.79
67015;BME280;1033;52.560;13.374;2023-06-14T00:44:14;101244.25;;;13.66;74.57
67015;BME280;1033;52.560;13.374;2023-06-14T00:46:45;101258.31;;;13.49;75.26
67015;BME280;1033;52.560;13.374;2023-06-14T00:49:17;101253.50;;;13.45;75.70
67015;BME280;1033;52.560;13.374;2023-06-14T00:51:47;101258.50;;;13.41;76.15
67015;BME280;1033;52.560;13.374;2023-06-14T00:54:16;101248.44;;;13.62;75.24
67015;BME280;1033;52.560;13.374;2023-06-14T00:56:45;101259.56;;;13.54;75.57
67015;BME280;1033;52.560;13.374;2023-06-14T00:59:14;101253.06;;;13.41;76.39
67015;BME280;1033;52.560;13.374;2023-06-14T01:01:45;101254.75;;;13.42;76.57
67015;BME280;1033;52.560;13.374;2023-06-14T01:04:18;101251.44;;;13.27;77.10
67015;BME280;1033;52.560;13.374;2023-06-14T01:06:57;101244.75;;;13.30;77.01
67015;BME280;1033;52.560;13.374;2023-06-14T01:09:37;101251.88;;;13.11;78.30
67015;BME280;1033;52.560;13.374;2023-06-14T01:12:13;101247.91;;;13.14;78.34
67015;BME280;1033;52.560;13.374;2023-06-14T01:14:44;101255.59;;;13.36;77.51
67015;BME280;1033;52.560;13.374;2023-06-14T01:17:19;101252.50;;;13.13;78.67
67015;BME280;1033;52.560;13.374;2023-06-14T01:19:51;101252.72;;;13.12;79.16
67015;BME280;1033;52.560;13.374;2023-06-14T01:22:26;101253.53;;;13.12;78.90
67015;BME280;1033;52.560;13.374;2023-06-14T01:24:57;101255.59;;;13.10;79.23
67015;BME280;1033;52.560;13.374;2023-06-14T01:27:26;101253.13;;;13.15;79.10
67015;BME280;1033;52.560;13.374;2023-06-14T01:29:57;101249.78;;;13.06;79.51
67015;BME280;1033;52.560;13.374;2023-06-14T01:32:28;101249.13;;;12.98;80.63
67015;BME280;1033;52.560;13.374;2023-06-14T01:35:01;101241.81;;;13.05;79.64
67015;BME280;1033;52.560;13.374;2023-06-14T01:37:31;101239.53;;;13.02;79.90
67015;BME280;1033;52.560;13.374;2023-06-14T01:40:03;101245.97;;;12.88;80.77
67015;BME280;1033;52.560;13.374;2023-06-14T01:42:36;101242.66;;;12.86;80.95
67015;BME280;1033;52.560;13.374;2023-06-14T01:45:08;101241.19;;;12.90;81.34
67015;BME280;1033;52.560;13.374;2023-06-14T01:47:38;101241.41;;;12.82;81.41
67015;BME280;1033;52.560;13.374;2023-06-14T01:50:08;101239.31;;;12.77;81.89
67015;BME280;1033;52.560;13.374;2023-06-14T01:52:37;101251.03;;;12.78;81.83
67015;BME280;1033;52.560;13.374;2023-06-14T01:55:08;101251.00;;;12.64;82.74
67015;BME280;1033;52.560;13.374;2023-06-14T01:57:39;101251.44;;;12.68;83.06
67015;BME280;1033;52.560;13.374;2023-06-14T02:00:09;101247.88;;;12.74;82.58
67015;BME280;1033;52.560;13.374;2023-06-14T02:02:40;101244.72;;;12.71;82.97
67015;BME280;1033;52.560;13.374;2023-06-14T02:05:10;101248.06;;;12.66;83.28
67015;BME280;1033;52.560;13.374;2023-06-14T02:07:41;101255.81;;;12.89;82.07
67015;BME280;1033;52.560;13.374;2023-06-14T02:10:12;101256.88;;;12.81;82.59
67015;BME280;1033;52.560;13.374;2023-06-14T02:12:42;101271.06;;;12.90;82.34
67015;BME280;1033;52.560;13.374;2023-06-14T02:15:11;101266.69;;;12.76;83.05
67015;BME280;1033;52.560;13.374;2023-06-14T02:17:44;101269.19;;;12.71;83.31
67015;BME280;1033;52.560;13.374;2023-06-14T02:20:16;101260.63;;;12.87;82.52
67015;BME280;1033;52.560;13.374;2023-06-14T02:22:46;101270.03;;;12.84;82.55
67015;BME280;1033;52.560;13.374;2023-06-14T02:25:16;101266.47;;;12.71;83.60
67015;BME280;1033;52.560;13.374;2023-06-14T02:27:45;101263.31;;;12.74;83.84
67015;BME280;1033;52.560;13.374;2023-06-14T02:30:15;101265.63;;;12.77;83.34
67015;BME280;1033;52.560;13.374;2023-06-14T02:32:44;101259.34;;;12.63;84.04
67015;BME280;1033;52.560;13.374;2023-06-14T02:35:16;101254.50;;;12.45;85.11
67015;BME280;1033;52.560;13.374;2023-06-14T02:37:45;101250.56;;;12.48;85.20
67015;BME280;1033;52.560;13.374;2023-06-14T02:40:16;101252.41;;;12.41;85.86
67015;BME280;1033;52.560;13.374;2023-06-14T02:42:45;101258.91;;;12.59;85.61
67015;BME280;1033;52.560;13.374;2023-06-14T02:45:14;101263.91;;;12.49;85.73
67015;BME280;1033;52.560;13.374;2023-06-14T02:47:43;101262.66;;;12.45;86.34
67015;BME280;1033;52.560;13.374;2023-06-14T02:50:13;101265.81;;;12.49;86.23
67015;BME280;1033;52.560;13.374;2023-06-14T02:52:44;101265.81;;;12.69;85.49
67015;BME280;1033;52.560;13.374;2023-06-14T02:55:13;101264.75;;;12.50;85.86
67015;BME280;1033;52.560;13.374;2023-06-14T02:57:44;101263.47;;;12.39;86.71
67015;BME280;1033;52.560;13.374;2023-06-14T03:00:16;101266.84;;;12.54;86.78
67015;BME280;1033;52.560;13.374;2023-06-14T03:02:47;101262.25;;;12.55;85.83
67015;BME280;1033;52.560;13.374;2023-06-14T03:05:17;101263.09;;;12.69;85.48
67015;BME280;1033;52.560;13.374;2023-06-14T03:07:49;101255.75;;;12.49;86.32
67015;BME280;1033;52.560;13.374;2023-06-14T03:10:19;101255.38;;;12.52;86.31
67015;BME280;1033;52.560;13.374;2023-06-14T03:12:51;101246.97;;;12.41;86.86
67015;BME280;1033;52.560;13.374;2023-06-14T03:15:21;101251.16;;;12.37;87.44
67015;BME280;1033;52.560;13.374;2023-06-14T03:17:52;101251.41;;;12.61;86.41
67015;BME280;1033;52.560;13.374;2023-06-14T03:20:22;101257.88;;;12.74;85.70
67015;BME280;1033;52.560;13.374;2023-06-14T03:22:54;101255.16;;;12.60;86.02
67015;BME280;1033;52.560;13.374;2023-06-14T03:25:23;101266.47;;;12.71;85.71
67015;BME280;1033;52.560;13.374;2023-06-14T03:27:54;101263.53;;;12.66;85.97
67015;BME280;1033;52.560;13.374;2023-06-14T03:30:24;101271.91;;;12.84;85.51
67015;BME280;1033;52.560;13.374;2023-06-14T03:32:53;101263.13;;;12.95;84.55
67015;BME280;1033;52.560;13.374;2023-06-14T03:35:26;101266.91;;;13.14;83.32
67015;BME280;1033;52.560;13.374;2023-06-14T03:37:55;101265.63;;;13.10;83.55
67015;BME280;1033;52.560;13.374;2023-06-14T03:40:25;101266.91;;;13.14;82.97
67015;BME280;1033;52.560;13.374;2023-06-14T03:43:05;101269.84;;;13.12;83.32
67015;BME280;1033;52.560;13.374;2023-06-14T03:45:34;101270.47;;;13.14;83.08
67015;BME280;1033;52.560;13.374;2023-06-14T03:48:05;101273.44;;;13.90;81.40
67015;BME280;1033;52.560;13.374;2023-06-14T03:50:37;101276.56;;;15.50;72.79
67015;BME280;1033;52.560;13.374;2023-06-14T03:53:06;101278.19;;;16.90;67.05
67015;BME280;1033;52.560;13.374;2023-06-14T03:55:39;101286.44;;;17.84;62.38
67015;BME280;1033;52.560;13.374;2023-06-14T03:58:13;101281.69;;;17.56;61.99
67015;BME280;1033;52.560;13.374;2023-06-14T04:00:42;101287.53;;;17.59;62.77
67015;BME280;1033;52.560;13.374;2023-06-14T04:03:13;101283.53;;;18.13;60.53
67015;BME280;1033;52.560;13.374;2023-06-14T04:05:43;101291.41;;;18.95;57.41
67015;BME280;1033;52.560;13.374;2023-06-14T04:08:20;101297.25;;;19.15;57.31
67015;BME280;1033;52.560;13.374;2023-06-14T04:10:51;101302.97;;;18.97;56.89
67015;BME280;1033;52.560;13.374;2023-06-14T04:13:21;101302.88;;;19.08;56.31
67015;BME280;1033;52.560;13.374;2023-06-14T04:15:51;101297.75;;;19.12;56.03
67015;BME280;1033;52.560;13.374;2023-06-14T04:18:25;101305.28;;;19.38;55.15
67015;BME280;1033;52.560;13.374;2023-06-14T04:20:56;101302.91;;;19.97;53.60
67015;BME280;1033;52.560;13.374;2023-06-14T04:23:25;101308.88;;;20.32;52.54
67015;BME280;1033;52.560;13.374;2023-06-14T04:25:56;101306.50;;;20.41;52.21
67015;BME280;1033;52.560;13.374;2023-06-14T04:28:31;101304.44;;;20.53;51.60
67015;BME280;1033;52.560;13.374;2023-06-14T04:31:02;101311.28;;;20.51;51.66
67015;BME280;1033;52.560;13.374;2023-06-14T04:33:33;101311.22;;;20.46;52.04
67015;BME280;1033;52.560;13.374;2023-06-14T04:36:14;101306.34;;;21.06;50.29
67015;BME280;1033;52.560;13.374;2023-06-14T04:38:48;101307.59;;;21.20;49.62
67015;BME280;1033;52.560;13.374;2023-06-14T04:41:17;101299.94;;;20.69;50.90
67015;BME280;1033;52.560;13.374;2023-06-14T04:43:48;101302.28;;;21.46;49.41
67015;BME280;1033;52.560;13.374;2023-06-14T04:46:18;101298.28;;;22.10;47.97
67015;BME280;1033;52.560;13.374;2023-06-14T04:48:48;101299.16;;;21.74;47.98
67015;BME280;1033;52.560;13.374;2023-06-14T04:51:18;101299.66;;;21.66;48.67
67015;BME280;1033;52.560;13.374;2023-06-14T04:53:48;101301.44;;;21.82;48.38
67015;BME280;1033;52.560;13.374;2023-06-14T04:56:18;101303.31;;;22.24;47.45
67015;BME280;1033;52.560;13.374;2023-06-14T04:58:50;101312.91;;;21.69;48.33
67015;BME280;1033;52.560;13.374;2023-06-14T05:01:21;101318.59;;;21.94;47.48
67015;BME280;1033;52.560;13.374;2023-06-14T05:03:51;101319.13;;;21.49;48.41
67015;BME280;1033;52.560;13.374;2023-06-14T05:06:21;101315.56;;;21.54;48.68
67015;BME280;1033;52.560;13.374;2023-06-14T05:08:50;101321.00;;;21.44;48.86
67015;BME280;1033;52.560;13.374;2023-06-14T05:11:19;101316.84;;;22.30;47.37
67015;BME280;1033;52.560;13.374;2023-06-14T05:13:50;101315.75;;;21.10;49.30
67015;BME280;1033;52.560;13.374;2023-06-14T05:16:20;101310.22;;;19.70;53.07
67015;BME280;1033;52.560;13.374;2023-06-14T05:18:51;101314.41;;;18.37;57.99
67015;BME280;1033;52.560;13.374;2023-06-14T05:21:21;101310.09;;;17.43;61.25
67015;BME280;1033;52.560;13.374;2023-06-14T05:23:50;101316.47;;;16.42;65.77
67015;BME280;1033;52.560;13.374;2023-06-14T05:26:19;101325.56;;;16.06;67.76
67015;BME280;1033;52.560;13.374;2023-06-14T05:28:52;101327.28;;;16.01;68.70
67015;BME280;1033;52.560;13.374;2023-06-14T05:31:24;101335.09;;;16.16;68.40
67015;BME280;1033;52.560;13.374;2023-06-14T05:33:54;101332.97;;;16.18;68.49
67015;BME280;1033;52.560;13.374;2023-06-14T05:36:23;101319.00;;;16.26;68.27
67015;BME280;1033;52.560;13.374;2023-06-14T05:38:53;101330.59;;;16.39;68.11
67015;BME280;1033;52.560;13.374;2023-06-14T05:41:25;101333.56;;;16.38;67.85
67015;BME280;1033;52.560;13.374;2023-06-14T05:43:57;101338.66;;;16.34;68.08
67015;BME280;1033;52.560;13.374;2023-06-14T05:46:27;101334.59;;;16.55;67.73
67015;BME280;1033;52.560;13.374;2023-06-14T05:48:56;101330.38;;;16.59;67.45
67015;BME280;1033;52.560;13.374;2023-06-14T05:51:26;101338.16;;;16.74;66.78
67015;BME280;1033;52.560;13.374;2023-06-14T05:53:55;101338.25;;;16.67;67.40
67015;BME280;1033;52.560;13.374;2023-06-14T05:56:24;101343.63;;;16.74;66.95
67015;BME280;1033;52.560;13.374;2023-06-14T05:58:55;101350.22;;;16.48;68.19
67015;BME280;1033;52.560;13.374;2023-06-14T06:01:24;101354.41;;;16.50;68.07
67015;BME280;1033;52.560;13.374;2023-06-14T06:03:54;101364.34;;;16.27;68.99
67015;BME280;1033;52.560;13.374;2023-06-14T06:06:23;101348.97;;;16.14;69.53
67015;BME280;1033;52.560;13.374;2023-06-14T06:08:52;101349.88;;;16.08;70.02
67015;BME280;1033;52.560;13.374;2023-06-14T06:11:22;101357.00;;;16.27;68.96
67015;BME280;1033;52.560;13.374;2023-06-14T06:13:51;101353.44;;;16.27;69.31
67015;BME280;1033;52.560;13.374;2023-06-14T06:16:21;101347.75;;;16.28;69.33
67015;BME280;1033;52.560;13.374;2023-06-14T06:18:50;101357.69;;;16.41;69.04
67015;BME280;1033;52.560;13.374;2023-06-14T06:21:20;101341.97;;;16.36;68.88
67015;BME280;1033;52.560;13.374;2023-06-14T06:23:49;101350.41;;;16.35;69.18
67015;BME280;1033;52.560;13.374;2023-06-14T06:26:18;101351.53;;;16.27;69.21
67015;BME280;1033;52.560;13.374;2023-06-14T06:28:47;101350.56;;;16.22;70.15
67015;BME280;1033;52.560;13.374;2023-06-14T06:31:17;101357.53;;;16.36;69.98
67015;BME280;1033;52.560;13.374;2023-06-14T06:33:47;101347.03;;;16.51;69.40
67015;BME280;1033;52.560;13.374;2023-06-14T06:36:16;101340.88;;;16.56;69.28
67015;BME280;1033;52.560;13.374;2023-06-14T06:38:45;101338.25;;;16.67;68.92
67015;BME280;1033;52.560;13.374;2023-06-14T06:41:14;101346.09;;;16.75;68.56
67015;BME280;1033;52.560;13.374;2023-06-14T06:43:44;101342.31;;;16.76;68.84
67015;BME280;1033;52.560;13.374;2023-06-14T06:46:14;101350.84;;;16.68;69.21
67015;BME280;1033;52.560;13.374;2023-06-14T06:48:47;101334.31;;;17.05;67.70
67015;BME280;1033;52.560;13.374;2023-06-14T06:51:16;101340.91;;;17.38;66.19
67015;BME280;1033;52.560;13.374;2023-06-14T06:53:53;101347.22;;;17.39;65.87
67015;BME280;1033;52.560;13.374;2023-06-14T06:56:22;101352.09;;;17.49;65.33
67015;BME280;1033;52.560;13.374;2023-06-14T06:58:52;101356.06;;;17.64;64.84
67015;BME280;1033;52.560;13.374;2023-06-14T07:01:21;101346.63;;;17.37;65.47
67015;BME280;1033;52.560;13.374;2023-06-14T07:03:53;101352.25;;;17.89;64.15
67015;BME280;1033;52.560;13.374;2023-06-14T07:06:22;101358.88;;;18.16;63.13
67015;BME280;1033;52.560;13.374;2023-06-14T07:08:55;101363.50;;;18.39;62.21
67015;BME280;1033;52.560;13.374;2023-06-14T07:11:29;101373.28;;;18.35;62.20
67015;BME280;1033;52.560;13.374;2023-06-14T07:13:58;101370.44;;;18.06;62.78
67015;BME280;1033;52.560;13.374;2023-06-14T07:16:27;101375.94;;;18.06;62.96
67015;BME280;1033;52.560;13.374;2023-06-14T07:19:01;101380.84;;;18.04;62.78
67015;BME280;1033;52.560;13.374;2023-06-14T07:21:30;101382.34;;;18.12;62.78
67015;BME280;1033;52.560;13.374;2023-06-14T07:23:59;101383.22;;;18.01;62.89
67015;BME280;1033;52.560;13.374;2023-06-14T07:26:29;101387.25;;;18.10;62.55
67015;BME280;1033;52.560;13.374;2023-06-14T07:29:02;101385.88;;;18.36;62.06
67015;BME280;1033;52.560;13.374;2023-06-14T07:31:31;101387.69;;;18.53;61.64
67015;BME280;1033;52.560;13.374;2023-06-14T07:34:02;101384.66;;;18.66;60.75
67015;BME280;1033;52.560;13.374;2023-06-14T07:36:31;101385.06;;;18.87;59.84
67015;BME280;1033;52.560;13.374;2023-06-14T07:39:00;101384.97;;;18.82;59.44
67015;BME280;1033;52.560;13.374;2023-06-14T07:41:31;101378.44;;;18.99;59.38
67015;BME280;1033;52.560;13.374;2023-06-14T07:44:00;101377.38;;;19.45;57.83
67015;BME280;1033;52.560;13.374;2023-06-14T07:46:30;101382.75;;;19.74;57.23
67015;BME280;1033;52.560;13.374;2023-06-14T07:49:02;101383.66;;;20.34;55.45
67015;BME280;1033;52.560;13.374;2023-06-14T07:51:31;101390.00;;;20.57;54.21
67015;BME280;1033;52.560;13.374;2023-06-14T07:54:01;101393.84;;;20.56;54.45
67015;BME280;1033;52.560;13.374;2023-06-14T07:56:30;101390.06;;;20.40;54.41
67015;BME280;1033;52.560;13.374;2023-06-14T07:58:59;101382.94;;;20.44;54.21
67015;BME280;1033;52.560;13.374;2023-06-14T08:01:28;101386.41;;;20.34;54.77
67015;BME280;1033;52.560;13.374;2023-06-14T08:03:58;101374.69;;;20.22;54.53
67015;BME280;1033;52.560;13.374;2023-06-14T08:06:28;101380.25;;;20.49;53.83
67015;BME280;1033;52.560;13.374;2023-06-14T08:08:58;101375.47;;;20.39;54.03
67015;BME280;1033;52.560;13.374;2023-06-14T08:11:27;101369.94;;;20.83;52.97
67015;BME280;1033;52.560;13.374;2023-06-14T08:13:57;101365.06;;;20.90;52.90
67015;BME280;1033;52.560;13.374;2023-06-14T08:16:26;101373.63;;;20.67;53.75
67015;BME280;1033;52.560;13.374;2023-06-14T08:18:55;101366.41;;;20.88;52.02
67015;BME280;1033;52.560;13.374;2023-06-14T08:21:25;101368.78;;;20.79;52.61
67015;BME280;1033;52.560;13.374;2023-06-14T08:23:57;101367.78;;;20.85;51.69
67015;BME280;1033;52.560;13.374;2023-06-14T08:26:27;101366.31;;;21.04;51.83
67015;BME280;1033;52.560;13.374;2023-06-14T08:28:57;101366.22;;;20.94;51.39
67015;BME280;1033;52.560;13.374;2023-06-14T08:31:26;101368.53;;;21.07;50.75
67015;BME280;1033;52.560;13.374;2023-06-14T08:33:56;101366.03;;;21.06;52.09
67015;BME280;1033;52.560;13.374;2023-06-14T08:36:25;101360.19;;;21.56;48.98
67015;BME280;1033;52.560;13.374;2023-06-14T08:38:56;101364.81;;;21.50;49.67
67015;BME280;1033;52.560;13.374;2023-06-14T08:41:25;101373.22;;;21.34;49.49
67015;BME280;1033;52.560;13.374;2023-06-14T08:43:55;101368.63;;;21.81;48.77
67015;BME280;1033;52.560;13.374;2023-06-14T08:46:25;101370.69;;;21.64;48.45
67015;BME280;1033;52.560;13.374;2023-06-14T08:48:56;101356.38;;;21.62;48.43
67015;BME280;1033;52.560;13.374;2023-06-14T08:51:27;101364.06;;;21.60;48.67
67015;BME280;1033;52.560;13.374;2023-06-14T08:54:03;101361.72;;;21.79;47.20
67015;BME280;1033;52.560;13.374;2023-06-14T08:56:34;101364.22;;;21.80;47.13
67015;BME280;1033;52.560;13.374;2023-06-14T08:59:06;101351.75;;;21.36;47.50
67015;BME280;1033;52.560;13.374;2023-06-14T09:01:37;101359.31;;;21.18;47.71
67015;BME280;1033;52.560;13.374;2023-06-14T09:04:13;101365.78;;;20.80;49.44
67015;BME280;1033;52.560;13.374;2023-06-14T09:06:42;101357.97;;;21.21;47.95
67015;BME280;1033;52.560;13.374;2023-06-14T09:09:13;101364.53;;;21.47;48.03
67015;BME280;1033;52.560;13.374;2023-06-14T09:11:43;101368.59;;;21.76;47.67
67015;BME280;1033;52.560;13.374;2023-06-14T09:14:12;101361.84;;;21.57;47.98
67015;BME280;1033;52.560;13.374;2023-06-14T09:16:41;101361.78;;;21.47;48.50
67015;BME280;1033;52.560;13.374;2023-06-14T09:19:20;101377.38;;;21.68;48.31
67015;BME280;1033;52.560;13.374;2023-06-14T09:21:50;101372.75;;;22.16;46.97
67015;BME280;1033;52.560;13.374;2023-06-14T09:24:24;101371.22;;;22.40;46.61
67015;BME280;1033;52.560;13.374;2023-06-14T09:26:54;101372.59;;;22.47;46.74
67015;BME280;1033;52.560;13.374;2023-06-14T09:29:25;101368.09;;;22.21;46.43
67015;BME280;1033;52.560;13.374;2023-06-14T09:31:55;101377.38;;;21.68;48.25
67015;BME280;1033;52.560;13.374;2023-06-14T09:34:25;101383.94;;;21.99;47.07
67015;BME280;1033;52.560;13.374;2023-06-14T09:36:55;101380.25;;;22.30;46.66
67015;BME280;1033;52.560;13.374;2023-06-14T09:39:25;101377.34;;;22.62;45.64
67015;BME280;1033;52.560;13.374;2023-06-14T09:41:55;101372.31;;;22.44;46.05
67015;BME280;1033;52.560;13.374;2023-06-14T09:44:26;101377.25;;;22.37;45.67
67015;BME280;1033;52.560;13.374;2023-06-14T09:46:58;101378.97;;;22.48;45.10
67015;BME280;1033;52.560;13.374;2023-06-14T09:49:27;101368.44;;;22.40;45.50
67015;BME280;1033;52.560;13.374;2023-06-14T09:52:03;101376.66;;;22.30;45.04
67015;BME280;1033;52.560;13.374;2023-06-14T09:54:36;101378.78;;;22.13;45.32
67015;BME280;1033;52.560;13.374;2023-06-14T09:57:11;101378.75;;;22.02;46.24
67015;BME280;1033;52.560;13.374;2023-06-14T09:59:43;101377.88;;;22.49;45.20
67015;BME280;1033;52.560;13.374;2023-06-14T10:02:18;101372.22;;;22.86;44.46
67015;BME280;1033;52.560;13.374;2023-06-14T10:04:56;101379.63;;;22.80;44.69
67015;BME280;1033;52.560;13.374;2023-06-14T10:07:31;101373.88;;;22.20;45.76
67015;BME280;1033;52.560;13.374;2023-06-14T10:10:04;101384.78;;;22.04;46.48
67015;BME280;1033;52.560;13.374;2023-06-14T10:12:35;101377.78;;;21.87;46.92
67015;BME280;1033;52.560;13.374;2023-06-14T10:15:07;101372.09;;;22.03;46.50
67015;BME280;1033;52.560;13.374;2023-06-14T10:17:43;101372.13;;;22.08;46.26
67015;BME280;1033;52.560;13.374;2023-06-14T10:20:23;101375.94;;;21.97;46.31
67015;BME280;1033;52.560;13.374;2023-06-14T10:23:00;101371.69;;;22.22;45.83
67015;BME280;1033;52.560;13.374;2023-06-14T10:25:34;101364.22;;;22.22;46.03
67015;BME280;1033;52.560;13.374;2023-06-14T10:28:17;101371.22;;;22.45;45.59
67015;BME280;1033;52.560;13.374;2023-06-14T10:31:06;101369.53;;;22.39;45.00
67015;BME280;1033;52.560;13.374;2023-06-14T10:33:36;101370.41;;;22.49;44.56
67015;BME280;1033;52.560;13.374;2023-06-14T10:36:25;101364.13;;;22.64;44.66
67015;BME280;1033;52.560;13.374;2023-06-14T10:39:05;101358.72;;;22.84;44.34
67015;BME280;1033;52.560;13.374;2023-06-14T10:41:38;101357.38;;;23.17;43.60
67015;BME280;1033;52.560;13.374;2023-06-14T10:44:39;101345.16;;;22.83;44.56
67015;BME280;1033;52.560;13.374;2023-06-14T10:47:23;101349.06;;;23.07;43.70
67015;BME280;1033;52.560;13.374;2023-06-14T10:49:55;101347.75;;;23.45;43.04
67015;BME280;1033;52.560;13.374;2023-06-14T10:52:26;101345.78;;;23.66;42.99
67015;BME280;1033;52.560;13.374;2023-06-14T10:55:05;101352.41;;;23.34;42.95
67015;BME280;1033;52.560;13.374;2023-06-14T10:57:39;101337.22;;;23.22;43.42
67015;BME280;1033;52.560;13.374;2023-06-14T11:00:13;101335.56;;;23.41;43.42
67015;BME280;1033;52.560;13.374;2023-06-14T11:05:50;101326.22;;;23.47;41.87
67015;BME280;1033;52.560;13.374;2023-06-14T11:08:40;101335.03;;;23.19;41.88
67015;BME280;1033;52.560;13.374;2023-06-14T11:11:14;101334.88;;;22.58;42.41
67015;BME280;1033;52.560;13.374;2023-06-14T11:13:46;101338.25;;;22.80;41.73
67015;BME280;1033;52.560;13.374;2023-06-14T11:16:17;101336.66;;;23.15;41.69
67015;BME280;1033;52.560;13.374;2023-06-14T11:18:48;101326.47;;;23.46;41.73
67015;BME280;1033;52.560;13.374;2023-06-14T11:21:18;101327.31;;;23.56;41.40
67015;BME280;1033;52.560;13.374;2023-06-14T11:23:50;101326.69;;;23.79;41.14
67015;BME280;1033;52.560;13.374;2023-06-14T11:26:25;101315.25;;;24.11;39.51
67015;BME280;1033;52.560;13.374;2023-06-14T11:28:58;101315.72;;;24.44;39.34
67015;BME280;1033;52.560;13.374;2023-06-14T11:31:28;101311.94;;;24.14;39.38
67015;BME280;1033;52.560;13.374;2023-06-14T11:33:59;101311.66;;;24.11;39.17
67015;BME280;1033;52.560;13.374;2023-06-14T11:36:29;101302.84;;;24.73;37.32
67015;BME280;1033;52.560;13.374;2023-06-14T11:38:59;101304.03;;;25.01;37.17
67015;BME280;1033;52.560;13.374;2023-06-14T11:41:39;101301.72;;;25.76;36.35
67015;BME280;1033;52.560;13.374;2023-06-14T11:44:10;101299.78;;;26.00;35.39
67015;BME280;1033;52.560;13.374;2023-06-14T11:46:40;101303.97;;;25.74;35.52
67015;BME280;1033;52.560;13.374;2023-06-14T11:49:09;101286.56;;;25.68;34.98
67015;BME280;1033;52.560;13.374;2023-06-14T11:51:38;101281.19;;;26.01;33.94
67015;BME280;1033;52.560;13.374;2023-06-14T11:54:07;101288.09;;;25.56;33.34
67015;BME280;1033;52.560;13.374;2023-06-14T11:56:37;101277.50;;;24.95;34.32
67015;BME280;1033;52.560;13.374;2023-06-14T11:59:06;101276.38;;;24.52;35.42
67015;BME280;1033;52.560;13.374;2023-06-14T12:01:43;101277.44;;;24.61;35.82
67015;BME280;1033;52.560;13.374;2023-06-14T12:04:42;101272.94;;;24.21;36.83
67015;BME280;1033;52.560;13.374;2023-06-14T12:07:13;101276.91;;;23.95;37.34
67015;BME280;1033;52.560;13.374;2023-06-14T12:10:03;101273.13;;;23.70;37.54
67015;BME280;1033;52.560;13.374;2023-06-14T12:12:39;101266.94;;;23.99;36.70
67015;BME280;1033;52.560;13.374;2023-06-14T12:15:09;101264.72;;;24.06;36.05
67015;BME280;1033;52.560;13.374;2023-06-14T12:17:43;101258.59;;;24.14;36.00
67015;BME280;1033;52.560;13.374;2023-06-14T12:20:14;101256.44;;;24.01;36.59
67015;BME280;1033;52.560;13.374;2023-06-14T12:22:53;101259.31;;;23.65;36.14
67015;BME280;1033;52.560;13.374;2023-06-14T12:25:26;101263.88;;;24.05;35.60
67015;BME280;1033;52.560;13.374;2023-06-14T12:27:56;101255.84;;;24.09;35.43
67015;BME280;1033;52.560;13.374;2023-06-14T12:30:25;101253.50;;;24.36;35.49
67015;BME280;1033;52.560;13.374;2023-06-14T12:32:56;101247.81;;;24.61;34.68
67015;BME280;1033;52.560;13.374;2023-06-14T12:35:25;101245.19;;;24.41;35.02
67015;BME280;1033;52.560;13.374;2023-06-14T12:37:54;101242.16;;;24.38;35.03
67015;BME280;1033;52.560;13.374;2023-06-14T12:40:24;101242.84;;;24.63;34.73
67015;BME280;1033;52.560;13.374;2023-06-14T12:42:54;101237.34;;;24.58;35.10
67015;BME280;1033;52.560;13.374;2023-06-14T12:45:23;101238.84;;;24.80;33.63
67015;BME280;1033;52.560;13.374;2023-06-14T12:47:52;101233.91;;;24.72;33.75
67015;BME280;1033;52.560;13.374;2023-06-14T12:50:23;101227.69;;;25.24;31.53
67015;BME280;1033;52.560;13.374;2023-06-14T12:52:54;101227.47;;;25.73;31.50
67015;BME280;1033;52.560;13.374;2023-06-14T12:55:23;101226.47;;;25.87;32.27
67015;BME280;1033;52.560;13.374;2023-06-14T12:57:52;101229.94;;;25.98;32.03
67015;BME280;1033;52.560;13.374;2023-06-14T13:00:21;101226.38;;;26.54;31.30
67015;BME280;1033;52.560;13.374;2023-06-14T13:02:53;101216.88;;;26.60;30.76
67015;BME280;1033;52.560;13.374;2023-06-14T13:05:23;101219.75;;;26.12;31.75
67015;BME280;1033;52.560;13.374;2023-06-14T13:07:53;101218.44;;;25.86;31.51
67015;BME280;1033;52.560;13.374;2023-06-14T13:10:22;101210.09;;;25.86;31.98
67015;BME280;1033;52.560;13.374;2023-06-14T13:13:05;101218.00;;;25.98;31.77
67015;BME280;1033;52.560;13.374;2023-06-14T13:15:36;101212.81;;;25.91;31.26